sensor_id;sensor_type;location;lat;lon;timestamp;pressure;altitude;pressure_sealevel;temperature;humidity
7309;BME280;3695;53.330;9.876;2023-05-14T00:01:28;102448.00;;;13.34;100.00
7309;BME280;3695;53.330;9.876;2023-05-14T00:03:55;102456.94;;;13.49;100.00
7309;BME280;3695;53.330;9.876;2023-05-14T00:06:22;102460.13;;;13.31;100.00
7309;BME280;3695;53.330;9.876;2023-05-14T00:08:48;102457.44;;;13.16;100.00
7309;BME280;3695;53.330;9.876;2023-05-14T00:11:15;102445.03;;;13.29;100.00
7309;BME280;3695;53.330;9.876;2023-05-14T00:13:41;102447.84;;;13.20;100.00
7309;BME280;3695;53.330;9.876;2023-05-14T00:16:08;102445.44;;;13.11;100.00
7309;BME280;3695;53.330;9.876;2023-05-14T00:18:34;102445.91;;;12.93;100.00
7309;BME280;3695;53.330;9.876;2023-05-14T00:21:02;102442.78;;;12.96;100.00
7309;BME280;3695;53.330;9.876;2023-05-14T00:23:29;102437.16;;;12.98;100.00
7309;BME280;3695;53.330;9.876;2023-05-14T00:25:55;102431.81;;;13.11;100.00
7309;BME280;3695;53.330;9.876;2023-05-14T00:28:21;102435.91;;;13.00;100.00
7309;BME280;3695;53.330;9.876;2023-05-14T00:30:48;102437.47;;;12.88;100.00
7309;BME280;3695;53.330;9.876;2023-05-14T00:33:14;102444.84;;;12.94;100.00
7309;BME280;3695;53.330;9.876;2023-05-14T00:35:41;102446.16;;;12.62;100.00
7309;BME280;3695;53.330;9.876;2023-05-14T00:38:09;102430.56;;;12.71;100.00
7309;BME280;3695;53.330;9.876;2023-05-14T00:40:41;102431.13;;;12.81;100.00
7309;BME280;3695;53.330;9.876;2023-05-14T00:43:10;102435.28;;;13.19;100.00
7309;BME280;3695;53.330;9.876;2023-05-14T00:45:36;102432.41;;;12.85;100.00
7309;BME280;3695;53.330;9.876;2023-05-14T00:48:04;102437.28;;;12.75;100.00
7309;BME280;3695;53.330;9.876;2023-05-14T00:50:30;102429.03;;;12.83;100.00
7309;BME280;3695;53.330;9.876;2023-05-14T00:52:58;102425.34;;;12.54;100.00
7309;BME280;3695;53.330;9.876;2023-05-14T00:55:27;102432.03;;;12.52;100.00
7309;BME280;3695;53.330;9.876;2023-05-14T00:57:56;102436.47;;;12.38;100.00
7309;BME280;3695;53.330;9.876;2023-05-14T01:00:23;102433.94;;;12.22;100.00
7309;BME280;3695;53.330;9.876;2023-05-14T01:02:49;102418.47;;;12.37;100.00
7309;BME280;3695;53.330;9.876;2023-05-14T01:05:16;102409.19;;;12.68;100.00
7309;BME280;3695;53.330;9.876;2023-05-14T01:07:48;102402.81;;;12.60;100.00
7309;BME280;3695;53.330;9.876;2023-05-14T01:10:21;102415.16;;;12.27;100.00
7309;BME280;3695;53.330;9.876;2023-05-14T01:12:57;102414.91;;;12.22;100.00
7309;BME280;3695;53.330;9.876;2023-05-14T01:15:27;102427.66;;;12.36;100.00
7309;BME280;3695;53.330;9.876;2023-05-14T01:17:58;102453.31;;;12.48;100.00
7309;BME280;3695;53.330;9.876;2023-05-14T01:20:25;102440.19;;;12.52;100.00
7309;BME280;3695;53.330;9.876;2023-05-14T01:22:53;102459.16;;;12.45;100.00
7309;BME280;3695;53.330;9.876;2023-05-14T01:25:19;102449.47;;;12.28;100.00
7309;BME280;3695;53.330;9.876;2023-05-14T01:27:51;102458.13;;;12.32;100.00
7309;BME280;3695;53.330;9.876;2023-05-14T01:30:21;102452.97;;;12.22;100.00
7309;BME280;3695;53.330;9.876;2023-05-14T01:32:50;102453.72;;;12.16;100.00
7309;BME280;3695;53.330;9.876;2023-05-14T01:35:19;102460.56;;;12.12;100.00
7309;BME280;3695;53.330;9.876;2023-05-14T01:37:47;102461.25;;;11.76;100.00
7309;BME280;3695;53.330;9.876;2023-05-14T01:40:16;102457.28;;;11.64;100.00
7309;BME280;3695;53.330;9.876;2023-05-14T01:42:42;102456.44;;;11.63;100.00
7309;BME280;3695;53.330;9.876;2023-05-14T01:45:10;102454.88;;;11.69;100.00
7309;BME280;3695;53.330;9.876;2023-05-14T01:47:36;102459.22;;;11.41;100.00
7309;BME280;3695;53.330;9.876;2023-05-14T01:50:03;102452.59;;;11.58;100.00
7309;BME280;3695;53.330;9.876;2023-05-14T01:52:29;102444.97;;;11.39;100.00
7309;BME280;3695;53.330;9.876;2023-05-14T01:54:56;102453.28;;;11.75;100.00
7309;BME280;3695;53.330;9.876;2023-05-14T01:57:25;102450.44;;;11.53;100.00
7309;BME280;3695;53.330;9.876;2023-05-14T01:59:51;102443.22;;;11.46;100.00
7309;BME280;3695;53.330;9.876;2023-05-14T02:02:18;102446.66;;;11.40;100.00
7309;BME280;3695;53.330;9.876;2023-05-14T02:04:44;102447.03;;;11.37;100.00
7309;BME280;3695;53.330;9.876;2023-05-14T02:07:11;102440.63;;;11.29;100.00
7309;BME280;3695;53.330;9.876;2023-05-14T02:09:37;102442.38;;;11.45;100.00
7309;BME280;3695;53.330;9.876;2023-05-14T02:12:06;102440.41;;;11.39;100.00
7309;BME280;3695;53.330;9.876;2023-05-14T02:14:33;102448.13;;;11.65;100.00
7309;BME280;3695;53.330;9.876;2023-05-14T02:17:00;102443.78;;;11.41;100.00
7309;BME280;3695;53.330;9.876;2023-05-14T02:19:27;102438.19;;;11.34;100.00
7309;BME280;3695;53.330;9.876;2023-05-14T02:21:54;102435.47;;;11.34;100.00
7309;BME280;3695;53.330;9.876;2023-05-14T02:24:21;102439.03;;;11.58;100.00
7309;BME280;3695;53.330;9.876;2023-05-14T02:26:47;102430.22;;;11.56;100.00
7309;BME280;3695;53.330;9.876;2023-05-14T02:29:13;102440.75;;;11.36;100.00
7309;BME280;3695;53.330;9.876;2023-05-14T02:31:42;102432.91;;;11.18;100.00
7309;BME280;3695;53.330;9.876;2023-05-14T02:34:08;102431.16;;;11.25;100.00
7309;BME280;3695;53.330;9.876;2023-05-14T02:36:35;102433.56;;;11.20;100.00
7309;BME280;3695;53.330;9.876;2023-05-14T02:39:01;102440.75;;;11.36;100.00
7309;BME280;3695;53.330;9.876;2023-05-14T02:41:28;102430.28;;;11.10;100.00
7309;BME280;3695;53.330;9.876;2023-05-14T02:43:55;102432.25;;;11.16;100.00
7309;BME280;3695;53.330;9.876;2023-05-14T02:46:21;102427.66;;;11.17;100.00
7309;BME280;3695;53.330;9.876;2023-05-14T02:48:49;102438.09;;;11.28;100.00
7309;BME280;3695;53.330;9.876;2023-05-14T02:51:16;102433.13;;;11.31;100.00
7309;BME280;3695;53.330;9.876;2023-05-14T02:53:42;102428.00;;;10.99;100.00
7309;BME280;3695;53.330;9.876;2023-05-14T02:56:08;102429.00;;;10.98;100.00
7309;BME280;3695;53.330;9.876;2023-05-14T02:58:35;102426.81;;;11.16;100.00
7309;BME280;3695;53.330;9.876;2023-05-14T03:01:01;102427.47;;;11.18;100.00
7309;BME280;3695;53.330;9.876;2023-05-14T03:03:28;102437.25;;;11.27;100.00
7309;BME280;3695;53.330;9.876;2023-05-14T03:05:56;102434.00;;;11.09;100.00
7309;BME280;3695;53.330;9.876;2023-05-14T03:08:22;102422.78;;;11.12;100.00
7309;BME280;3695;53.330;9.876;2023-05-14T03:10:49;102430.00;;;11.20;100.00
7309;BME280;3695;53.330;9.876;2023-05-14T03:13:15;102423.28;;;10.93;100.00
7309;BME280;3695;53.330;9.876;2023-05-14T03:15:44;102422.59;;;11.14;100.00
7309;BME280;3695;53.330;9.876;2023-05-14T03:18:11;102420.59;;;10.85;100.00
7309;BME280;3695;53.330;9.876;2023-05-14T03:20:37;102420.31;;;10.80;100.00
7309;BME280;3695;53.330;9.876;2023-05-14T03:23:05;102424.34;;;10.84;100.00
7309;BME280;3695;53.330;9.876;2023-05-14T03:25:32;102422.94;;;10.65;100.00
7309;BME280;3695;53.330;9.876;2023-05-14T03:27:59;102420.94;;;10.59;100.00
7309;BME280;3695;53.330;9.876;2023-05-14T03:30:25;102422.41;;;10.69;100.00
7309;BME280;3695;53.330;9.876;2023-05-14T03:32:51;102420.25;;;10.88;100.00
7309;BME280;3695;53.330;9.876;2023-05-14T03:35:18;102424.03;;;10.79;100.00
7309;BME280;3695;53.330;9.876;2023-05-14T03:37:44;102428.72;;;10.93;100.00
7309;BME280;3695;53.330;9.876;2023-05-14T03:40:12;102436.53;;;10.88;100.00
7309;BME280;3695;53.330;9.876;2023-05-14T03:42:39;102430.53;;;10.69;100.00
7309;BME280;3695;53.330;9.876;2023-05-14T03:45:07;102430.25;;;10.64;100.00
7309;BME280;3695;53.330;9.876;2023-05-14T03:47:33;102433.88;;;10.80;100.00
7309;BME280;3695;53.330;9.876;2023-05-14T03:50:00;102428.56;;;10.86;100.00
7309;BME280;3695;53.330;9.876;2023-05-14T03:52:26;102431.22;;;10.71;100.00
7309;BME280;3695;53.330;9.876;2023-05-14T03:54:53;102433.88;;;10.80;100.00
7309;BME280;3695;53.330;9.876;2023-05-14T03:57:21;102445.34;;;10.90;100.00
7309;BME280;3695;53.330;9.876;2023-05-14T03:59:47;102441.63;;;10.91;100.00
7309;BME280;3695;53.330;9.876;2023-05-14T04:02:14;102439.56;;;10.93;100.00
7309;BME280;3695;53.330;9.876;2023-05-14T04:04:40;102438.53;;;10.94;100.00
7309;BME280;3695;53.330;9.876;2023-05-14T04:07:07;102440.97;;;10.81;100.00
7309;BME280;3695;53.330;9.876;2023-05-14T04:09:33;102442.97;;;10.87;100.00
7309;BME280;3695;53.330;9.876;2023-05-14T04:12:00;102436.22;;;10.83;100.00
7309;BME280;3695;53.330;9.876;2023-05-14T04:14:28;102441.56;;;10.99;100.00
7309;BME280;3695;53.330;9.876;2023-05-14T04:16:55;102438.03;;;11.13;100.00
7309;BME280;3695;53.330;9.876;2023-05-14T04:19:21;102439.94;;;10.90;100.00
7309;BME280;3695;53.330;9.876;2023-05-14T04:21:48;102439.66;;;11.22;100.00
7309;BME280;3695;53.330;9.876;2023-05-14T04:24:14;102433.75;;;11.19;100.00
7309;BME280;3695;53.330;9.876;2023-05-14T04:26:42;102439.44;;;11.09;100.00
7309;BME280;3695;53.330;9.876;2023-05-14T04:29:08;102443.78;;;11.18;100.00
7309;BME280;3695;53.330;9.876;2023-05-14T04:31:36;102439.03;;;11.35;100.00
7309;BME280;3695;53.330;9.876;2023-05-14T04:34:02;102439.97;;;11.27;100.00
7309;BME280;3695;53.330;9.876;2023-05-14T04:36:29;102437.88;;;11.38;100.00
7309;BME280;3695;53.330;9.876;2023-05-14T04:38:55;102432.34;;;11.46;100.00
7309;BME280;3695;53.330;9.876;2023-05-14T04:41:22;102440.72;;;11.59;100.00
7309;BME280;3695;53.330;9.876;2023-05-14T04:43:49;102435.91;;;11.46;100.00
7309;BME280;3695;53.330;9.876;2023-05-14T04:46:15;102433.50;;;11.66;100.00
7309;BME280;3695;53.330;9.876;2023-05-14T04:48:43;102431.34;;;11.76;100.00
7309;BME280;3695;53.330;9.876;2023-05-14T04:51:10;102424.19;;;12.13;100.00
7309;BME280;3695;53.330;9.876;2023-05-14T04:53:37;102432.25;;;12.06;100.00
7309;BME280;3695;53.330;9.876;2023-05-14T04:56:03;102434.59;;;12.24;100.00
7309;BME280;3695;53.330;9.876;2023-05-14T04:58:30;102431.88;;;12.24;100.00
7309;BME280;3695;53.330;9.876;2023-05-14T05:00:57;102431.09;;;12.45;100.00
7309;BME280;3695;53.330;9.876;2023-05-14T05:03:24;102430.91;;;12.46;100.00
7309;BME280;3695;53.330;9.876;2023-05-14T05:05:51;102437.47;;;12.52;100.00
7309;BME280;3695;53.330;9.876;2023-05-14T05:08:18;102435.34;;;12.33;100.00
7309;BME280;3695;53.330;9.876;2023-05-14T05:10:44;102437.31;;;12.24;100.00
7309;BME280;3695;53.330;9.876;2023-05-14T05:13:11;102432.78;;;12.46;100.00
7309;BME280;3695;53.330;9.876;2023-05-14T05:15:37;102435.53;;;12.67;100.00
7309;BME280;3695;53.330;9.876;2023-05-14T05:18:04;102433.00;;;12.66;100.00
7309;BME280;3695;53.330;9.876;2023-05-14T05:20:31;102433.00;;;12.66;100.00
7309;BME280;3695;53.330;9.876;2023-05-14T05:22:59;102430.81;;;12.76;100.00
7309;BME280;3695;53.330;9.876;2023-05-14T05:25:26;102431.63;;;12.91;100.00
7309;BME280;3695;53.330;9.876;2023-05-14T05:27:52;102430.72;;;12.84;100.00
7309;BME280;3695;53.330;9.876;2023-05-14T05:30:19;102427.88;;;13.13;100.00
7309;BME280;3695;53.330;9.876;2023-05-14T05:32:45;102418.66;;;13.14;100.00
7309;BME280;3695;53.330;9.876;2023-05-14T05:35:12;102425.81;;;13.37;100.00
7309;BME280;3695;53.330;9.876;2023-05-14T05:37:38;102434.28;;;13.48;100.00
7309;BME280;3695;53.330;9.876;2023-05-14T05:40:07;102434.94;;;13.50;100.00
7309;BME280;3695;53.330;9.876;2023-05-14T05:42:34;102435.22;;;13.62;100.00
7309;BME280;3695;53.330;9.876;2023-05-14T05:45:00;102427.38;;;13.74;100.00
7309;BME280;3695;53.330;9.876;2023-05-14T05:47:27;102428.50;;;13.86;100.00
7309;BME280;3695;53.330;9.876;2023-05-14T05:49:54;102420.31;;;13.86;100.00
7309;BME280;3695;53.330;9.876;2023-05-14T05:52:21;102428.81;;;14.04;100.00
7309;BME280;3695;53.330;9.876;2023-05-14T05:54:47;102428.94;;;14.24;100.00
7309;BME280;3695;53.330;9.876;2023-05-14T05:57:15;102424.78;;;14.35;100.00
7309;BME280;3695;53.330;9.876;2023-05-14T05:59:41;102427.06;;;14.31;100.00
7309;BME280;3695;53.330;9.876;2023-05-14T06:02:08;102426.91;;;14.39;100.00
7309;BME280;3695;53.330;9.876;2023-05-14T06:04:34;102422.25;;;14.33;100.00
7309;BME280;3695;53.330;9.876;2023-05-14T06:07:01;102418.59;;;14.61;100.00
7309;BME280;3695;53.330;9.876;2023-05-14T06:09:27;102418.69;;;14.87;100.00
7309;BME280;3695;53.330;9.876;2023-05-14T06:11:54;102421.63;;;14.86;100.00
7309;BME280;3695;53.330;9.876;2023-05-14T06:14:21;102419.75;;;14.86;100.00
7309;BME280;3695;53.330;9.876;2023-05-14T06:16:48;102414.91;;;15.01;100.00
7309;BME280;3695;53.330;9.876;2023-05-14T06:19:14;102414.53;;;15.18;100.00
7309;BME280;3695;53.330;9.876;2023-05-14T06:21:41;102412.03;;;15.23;100.00
7309;BME280;3695;53.330;9.876;2023-05-14T06:24:08;102420.00;;;15.31;100.00
7309;BME280;3695;53.330;9.876;2023-05-14T06:26:35;102417.69;;;15.41;100.00
7309;BME280;3695;53.330;9.876;2023-05-14T06:29:01;102414.13;;;15.21;100.00
7309;BME280;3695;53.330;9.876;2023-05-14T06:31:29;102422.94;;;15.49;100.00
7309;BME280;3695;53.330;9.876;2023-05-14T06:33:56;102415.63;;;15.69;100.00
7309;BME280;3695;53.330;9.876;2023-05-14T06:36:22;102417.50;;;15.76;100.00
7309;BME280;3695;53.330;9.876;2023-05-14T06:38:48;102414.13;;;15.80;100.00
7309;BME280;3695;53.330;9.876;2023-05-14T06:41:15;102417.25;;;15.84;100.00
7309;BME280;3695;53.330;9.876;2023-05-14T06:43:41;102415.13;;;15.99;100.00
7309;BME280;3695;53.330;9.876;2023-05-14T06:46:08;102428.56;;;16.07;100.00
7309;BME280;3695;53.330;9.876;2023-05-14T06:48:36;102422.88;;;16.15;100.00
7309;BME280;3695;53.330;9.876;2023-05-14T06:51:03;102415.09;;;16.05;100.00
7309;BME280;3695;53.330;9.876;2023-05-14T06:53:29;102415.31;;;16.11;100.00
7309;BME280;3695;53.330;9.876;2023-05-14T06:55:56;102420.13;;;16.15;100.00
7309;BME280;3695;53.330;9.876;2023-05-14T06:58:22;102410.66;;;16.18;100.00
7309;BME280;3695;53.330;9.876;2023-05-14T07:00:49;102410.63;;;16.24;100.00
7309;BME280;3695;53.330;9.876;2023-05-14T07:03:15;102416.28;;;16.29;100.00
7309;BME280;3695;53.330;9.876;2023-05-14T07:05:43;102414.28;;;16.50;100.00
7309;BME280;3695;53.330;9.876;2023-05-14T07:08:10;102408.38;;;16.59;100.00
7309;BME280;3695;53.330;9.876;2023-05-14T07:10:37;102394.91;;;16.58;100.00
7309;BME280;3695;53.330;9.876;2023-05-14T07:13:04;102391.94;;;16.66;100.00
7309;BME280;3695;53.330;9.876;2023-05-14T07:15:30;102392.03;;;16.84;100.00
7309;BME280;3695;53.330;9.876;2023-05-14T07:17:57;102376.13;;;16.99;100.00
7309;BME280;3695;53.330;9.876;2023-05-14T07:20:24;102375.28;;;16.99;100.00
7309;BME280;3695;53.330;9.876;2023-05-14T07:22:51;102372.84;;;17.16;100.00
7309;BME280;3695;53.330;9.876;2023-05-14T07:25:18;102362.94;;;17.15;100.00
7309;BME280;3695;53.330;9.876;2023-05-14T07:27:45;102365.06;;;17.13;100.00
7309;BME280;3695;53.330;9.876;2023-05-14T07:30:12;102371.50;;;17.25;100.00
7309;BME280;3695;53.330;9.876;2023-05-14T07:32:38;102364.25;;;17.12;100.00
7309;BME280;3695;53.330;9.876;2023-05-14T07:35:05;102377.66;;;17.20;100.00
7309;BME280;3695;53.330;9.876;2023-05-14T07:37:32;102370.63;;;17.49;100.00
7309;BME280;3695;53.330;9.876;2023-05-14T07:40:00;102369.31;;;17.58;100.00
7309;BME280;3695;53.330;9.876;2023-05-14T07:42:26;102352.97;;;17.70;100.00
7309;BME280;3695;53.330;9.876;2023-05-14T07:44:53;102351.19;;;17.57;100.00
7309;BME280;3695;53.330;9.876;2023-05-14T07:47:20;102357.00;;;17.68;100.00
7309;BME280;3695;53.330;9.876;2023-05-14T07:49:46;102336.44;;;17.77;100.00
7309;BME280;3695;53.330;9.876;2023-05-14T07:52:13;102345.50;;;17.96;100.00
7309;BME280;3695;53.330;9.876;2023-05-14T07:54:39;102351.16;;;18.01;100.00
7309;BME280;3695;53.330;9.876;2023-05-14T07:57:07;102343.63;;;18.26;100.00
7309;BME280;3695;53.330;9.876;2023-05-14T07:59:33;102340.56;;;18.34;100.00
7309;BME280;3695;53.330;9.876;2023-05-14T08:02:00;102357.31;;;18.14;100.00
7309;BME280;3695;53.330;9.876;2023-05-14T08:04:26;102350.00;;;18.08;100.00
7309;BME280;3695;53.330;9.876;2023-05-14T08:06:53;102355.91;;;18.23;100.00
7309;BME280;3695;53.330;9.876;2023-05-14T08:09:22;102348.09;;;18.39;100.00
7309;BME280;3695;53.330;9.876;2023-05-14T08:11:48;102338.78;;;18.40;100.00
7309;BME280;3695;53.330;9.876;2023-05-14T08:14:16;102336.50;;;18.55;100.00
7309;BME280;3695;53.330;9.876;2023-05-14T08:16:43;102345.50;;;18.44;100.00
7309;BME280;3695;53.330;9.876;2023-05-14T08:19:11;102338.94;;;18.63;100.00
7309;BME280;3695;53.330;9.876;2023-05-14T08:21:37;102333.03;;;18.60;100.00
7309;BME280;3695;53.330;9.876;2023-05-14T08:24:04;102334.44;;;18.80;100.00
7309;BME280;3695;53.330;9.876;2023-05-14T08:26:31;102333.97;;;18.83;100.00
7309;BME280;3695;53.330;9.876;2023-05-14T08:28:57;102325.84;;;18.88;100.00
7309;BME280;3695;53.330;9.876;2023-05-14T08:31:25;102327.91;;;18.93;100.00
7309;BME280;3695;53.330;9.876;2023-05-14T08:33:52;102321.34;;;19.06;100.00
7309;BME280;3695;53.330;9.876;2023-05-14T08:36:18;102314.31;;;19.10;100.00
7309;BME280;3695;53.330;9.876;2023-05-14T08:38:45;102316.31;;;19.03;100.00
7309;BME280;3695;53.330;9.876;2023-05-14T08:41:13;102307.69;;;18.87;100.00
7309;BME280;3695;53.330;9.876;2023-05-14T08:43:46;102310.34;;;19.06;100.00
7309;BME280;3695;53.330;9.876;2023-05-14T08:46:16;102306.28;;;18.97;100.00
7309;BME280;3695;53.330;9.876;2023-05-14T08:48:47;102310.00;;;19.02;100.00
7309;BME280;3695;53.330;9.876;2023-05-14T08:51:15;102304.97;;;19.11;100.00
7309;BME280;3695;53.330;9.876;2023-05-14T08:53:43;102307.50;;;19.24;100.00
7309;BME280;3695;53.330;9.876;2023-05-14T08:56:09;102292.41;;;19.38;100.00
7309;BME280;3695;53.330;9.876;2023-05-14T08:58:37;102292.41;;;19.38;100.00
7309;BME280;3695;53.330;9.876;2023-05-14T09:01:03;102283.72;;;19.18;100.00
7309;BME280;3695;53.330;9.876;2023-05-14T09:03:30;102280.72;;;19.31;100.00
7309;BME280;3695;53.330;9.876;2023-05-14T09:05:58;102268.41;;;19.22;100.00
7309;BME280;3695;53.330;9.876;2023-05-14T09:08:26;102272.47;;;19.43;100.00
7309;BME280;3695;53.330;9.876;2023-05-14T09:10:52;102276.16;;;19.48;100.00
7309;BME280;3695;53.330;9.876;2023-05-14T09:13:19;102273.50;;;19.77;100.00
7309;BME280;3695;53.330;9.876;2023-05-14T09:15:47;102273.63;;;20.10;100.00
7309;BME280;3695;53.330;9.876;2023-05-14T09:18:16;102266.50;;;19.98;100.00
7309;BME280;3695;53.330;9.876;2023-05-14T09:20:42;102267.00;;;19.83;100.00
7309;BME280;3695;53.330;9.876;2023-05-14T09:23:10;102270.31;;;19.45;100.00
7309;BME280;3695;53.330;9.876;2023-05-14T09:25:36;102265.13;;;19.72;100.00
7309;BME280;3695;53.330;9.876;2023-05-14T09:28:05;102269.66;;;19.78;100.00
7309;BME280;3695;53.330;9.876;2023-05-14T09:30:32;102263.72;;;19.69;100.00
7309;BME280;3695;53.330;9.876;2023-05-14T09:33:01;102259.50;;;19.78;100.00
7309;BME280;3695;53.330;9.876;2023-05-14T09:35:28;102250.84;;;19.98;100.00
7309;BME280;3695;53.330;9.876;2023-05-14T09:37:56;102249.94;;;20.38;100.00
7309;BME280;3695;53.330;9.876;2023-05-14T09:40:24;102242.72;;;20.49;100.00
7309;BME280;3695;53.330;9.876;2023-05-14T09:42:50;102245.25;;;20.38;100.00
7309;BME280;3695;53.330;9.876;2023-05-14T09:45:17;102242.03;;;20.30;100.00
7309;BME280;3695;53.330;9.876;2023-05-14T09:47:43;102248.44;;;20.19;100.00
7309;BME280;3695;53.330;9.876;2023-05-14T09:50:10;102232.53;;;19.92;100.00
7309;BME280;3695;53.330;9.876;2023-05-14T09:52:37;102235.13;;;20.27;100.00
7309;BME280;3695;53.330;9.876;2023-05-14T09:55:04;102230.94;;;20.25;100.00
7309;BME280;3695;53.330;9.876;2023-05-14T09:57:32;102225.94;;;20.22;100.00
7309;BME280;3695;53.330;9.876;2023-05-14T09:59:59;102223.59;;;20.13;100.00
7309;BME280;3695;53.330;9.876;2023-05-14T10:02:34;102219.94;;;20.25;100.00
7309;BME280;3695;53.330;9.876;2023-05-14T10:05:03;102219.06;;;20.36;100.00
7309;BME280;3695;53.330;9.876;2023-05-14T10:07:35;102214.16;;;20.71;100.00
7309;BME280;3695;53.330;9.876;2023-05-14T10:10:06;102212.84;;;21.13;100.00
7309;BME280;3695;53.330;9.876;2023-05-14T10:12:37;102203.47;;;20.92;100.00
7309;BME280;3695;53.330;9.876;2023-05-14T10:15:10;102212.09;;;21.17;100.00
7309;BME280;3695;53.330;9.876;2023-05-14T10:17:39;102200.22;;;21.17;100.00
7309;BME280;3695;53.330;9.876;2023-05-14T10:20:13;102198.56;;;21.32;100.00
7309;BME280;3695;53.330;9.876;2023-05-14T10:22:40;102199.03;;;21.73;100.00
7309;BME280;3695;53.330;9.876;2023-05-14T10:25:08;102193.41;;;21.63;100.00
7309;BME280;3695;53.330;9.876;2023-05-14T10:27:36;102197.66;;;21.49;100.00
7309;BME280;3695;53.330;9.876;2023-05-14T10:30:09;102191.16;;;20.99;100.00
7309;BME280;3695;53.330;9.876;2023-05-14T10:32:36;102187.94;;;20.86;100.00
7309;BME280;3695;53.330;9.876;2023-05-14T10:35:14;102172.56;;;20.90;100.00
7309;BME280;3695;53.330;9.876;2023-05-14T10:37:40;102176.16;;;20.73;100.00
7309;BME280;3695;53.330;9.876;2023-05-14T10:40:09;102174.81;;;21.15;100.00
7309;BME280;3695;53.330;9.876;2023-05-14T10:42:38;102176.69;;;21.09;100.00
7309;BME280;3695;53.330;9.876;2023-05-14T10:45:06;102175.38;;;20.95;100.00
7309;BME280;3695;53.330;9.876;2023-05-14T10:47:34;102177.81;;;20.74;100.00
7309;BME280;3695;53.330;9.876;2023-05-14T10:50:02;102172.50;;;20.85;100.00
7309;BME280;3695;53.330;9.876;2023-05-14T10:52:30;102162.63;;;20.89;100.00
7309;BME280;3695;53.330;9.876;2023-05-14T10:54:59;102179.16;;;21.27;100.00
7309;BME280;3695;53.330;9.876;2023-05-14T10:57:28;102163.72;;;21.48;100.00
7309;BME280;3695;53.330;9.876;2023-05-14T10:59:57;102148.16;;;21.64;100.00
7309;BME280;3695;53.330;9.876;2023-05-14T11:02:25;102154.13;;;21.78;100.00
7309;BME280;3695;53.330;9.876;2023-05-14T11:04:54;102141.97;;;21.52;100.00
7309;BME280;3695;53.330;9.876;2023-05-14T11:07:24;102137.94;;;21.86;100.00
7309;BME280;3695;53.330;9.876;2023-05-14T11:09:52;102139.59;;;22.14;100.00
7309;BME280;3695;53.330;9.876;2023-05-14T11:12:22;102149.53;;;21.88;100.00
7309;BME280;3695;53.330;9.876;2023-05-14T11:14:49;102130.50;;;21.65;100.00
7309;BME280;3695;53.330;9.876;2023-05-14T11:17:17;102131.84;;;21.84;100.00
7309;BME280;3695;53.330;9.876;2023-05-14T11:19:43;102125.09;;;22.02;100.00
7309;BME280;3695;53.330;9.876;2023-05-14T11:22:10;102132.81;;;22.27;100.00
7309;BME280;3695;53.330;9.876;2023-05-14T11:24:38;102118.56;;;22.08;100.00
7309;BME280;3695;53.330;9.876;2023-05-14T11:27:06;102120.41;;;22.03;100.00
7309;BME280;3695;53.330;9.876;2023-05-14T11:29:32;102122.09;;;22.04;100.00
7309;BME280;3695;53.330;9.876;2023-05-14T11:31:59;102106.75;;;22.18;100.00
7309;BME280;3695;53.330;9.876;2023-05-14T11:34:28;102112.28;;;22.18;100.00
7309;BME280;3695;53.330;9.876;2023-05-14T11:36:54;102110.97;;;22.68;100.00
7309;BME280;3695;53.330;9.876;2023-05-14T11:39:20;102102.69;;;22.68;100.00
7309;BME280;3695;53.330;9.876;2023-05-14T11:41:47;102092.94;;;22.55;100.00
7309;BME280;3695;53.330;9.876;2023-05-14T11:44:14;102108.84;;;22.80;100.00
7309;BME280;3695;53.330;9.876;2023-05-14T11:46:40;102096.00;;;23.06;100.00
7309;BME280;3695;53.330;9.876;2023-05-14T11:49:06;102094.09;;;23.11;100.00
7309;BME280;3695;53.330;9.876;2023-05-14T11:51:35;102097.06;;;22.52;100.00
7309;BME280;3695;53.330;9.876;2023-05-14T11:54:01;102089.59;;;21.84;100.00
7309;BME280;3695;53.330;9.876;2023-05-14T11:56:28;102091.50;;;21.29;100.00
7309;BME280;3695;53.330;9.876;2023-05-14T11:58:55;102094.19;;;21.46;100.00
7309;BME280;3695;53.330;9.876;2023-05-14T12:01:22;102097.81;;;21.52;100.00
7309;BME280;3695;53.330;9.876;2023-05-14T12:03:49;102102.25;;;21.53;100.00
7309;BME280;3695;53.330;9.876;2023-05-14T12:06:17;102091.34;;;21.68;100.00
7309;BME280;3695;53.330;9.876;2023-05-14T12:08:46;102089.38;;;21.63;100.00
7309;BME280;3695;53.330;9.876;2023-05-14T12:11:13;102082.38;;;21.78;100.00
7309;BME280;3695;53.330;9.876;2023-05-14T12:13:39;102068.75;;;21.71;100.00
7309;BME280;3695;53.330;9.876;2023-05-14T12:16:07;102068.97;;;21.64;100.00
7309;BME280;3695;53.330;9.876;2023-05-14T12:18:33;102063.66;;;21.58;100.00
7309;BME280;3695;53.330;9.876;2023-05-14T12:21:04;102064.59;;;21.68;100.00
7309;BME280;3695;53.330;9.876;2023-05-14T12:23:32;102062.09;;;21.67;100.00
7309;BME280;3695;53.330;9.876;2023-05-14T12:26:02;102052.69;;;21.63;100.00
7309;BME280;3695;53.330;9.876;2023-05-14T12:28:30;102050.97;;;21.57;100.00
7309;BME280;3695;53.330;9.876;2023-05-14T12:30:57;102058.25;;;21.68;100.00
7309;BME280;3695;53.330;9.876;2023-05-14T12:33:25;102046.03;;;21.59;100.00
7309;BME280;3695;53.330;9.876;2023-05-14T12:35:52;102051.88;;;21.35;100.00
7309;BME280;3695;53.330;9.876;2023-05-14T12:38:21;102056.06;;;21.21;100.00
7309;BME280;3695;53.330;9.876;2023-05-14T12:40:48;102051.56;;;21.32;100.00
7309;BME280;3695;53.330;9.876;2023-05-14T12:43:15;102047.72;;;21.65;100.00
7309;BME280;3695;53.330;9.876;2023-05-14T12:45:42;102037.84;;;21.69;100.00
7309;BME280;3695;53.330;9.876;2023-05-14T12:48:08;102034.88;;;22.08;100.00
7309;BME280;3695;53.330;9.876;2023-05-14T12:50:35;102025.25;;;22.57;100.00
7309;BME280;3695;53.330;9.876;2023-05-14T12:53:01;102015.78;;;22.90;100.00
7309;BME280;3695;53.330;9.876;2023-05-14T12:55:28;102027.34;;;22.35;100.00
7309;BME280;3695;53.330;9.876;2023-05-14T12:57:55;102021.81;;;21.66;100.00
7309;BME280;3695;53.330;9.876;2023-05-14T13:00:23;102027.22;;;21.56;100.00